createdAt,value
2017-06-29T00:00:58.805Z,18.40
2017-06-29T00:03:26.246Z,18.30
2017-06-29T00:05:53.672Z,18.20
2017-06-29T00:08:21.880Z,18.30
2017-06-29T00:10:49.306Z,18.20
2017-06-29T00:13:16.738Z,18.30
2017-06-29T00:15:44.204Z,18.30
2017-06-29T00:18:11.636Z,18.20
2017-06-29T00:20:39.074Z,18.20
2017-06-29T00:23:06.496Z,18.10
2017-06-29T00:25:33.935Z,18.10
2017-06-29T00:28:01.368Z,18.20
2017-06-29T00:30:28.796Z,18.20
2017-06-29T00:32:56.227Z,18.20
2017-06-29T00:35:23.648Z,18.10
2017-06-29T00:37:51.082Z,18.10
2017-06-29T00:40:18.508Z,18.00
2017-06-29T00:42:45.980Z,18.00
2017-06-29T00:45:13.403Z,18.00
2017-06-29T00:47:40.823Z,18.00
2017-06-29T00:50:08.263Z,18.00
2017-06-29T00:52:35.689Z,18.00
2017-06-29T00:55:03.135Z,18.00
2017-06-29T00:57:30.564Z,18.00
2017-06-29T00:59:58.004Z,18.00
2017-06-29T01:02:25.428Z,18.00
2017-06-29T01:04:53.636Z,18.00
2017-06-29T01:07:21.079Z,18.00
2017-06-29T01:09:48.523Z,18.10
2017-06-29T01:12:15.951Z,18.00
2017-06-29T01:14:43.403Z,18.10
2017-06-29T01:17:10.831Z,18.00
2017-06-29T01:19:38.260Z,18.00
2017-06-29T01:22:06.472Z,17.80
2017-06-29T01:24:33.895Z,17.80
2017-06-29T01:27:01.349Z,17.80
2017-06-29T01:29:28.787Z,17.90
2017-06-29T01:31:56.220Z,17.90
2017-06-29T01:34:23.662Z,17.90
2017-06-29T01:36:51.087Z,17.90
2017-06-29T01:39:18.512Z,17.70
2017-06-29T01:41:46.734Z,17.70
2017-06-29T01:44:14.143Z,17.70
2017-06-29T01:46:41.579Z,17.60
2017-06-29T01:49:09.007Z,17.60
2017-06-29T01:51:37.218Z,17.50
2017-06-29T01:54:04.683Z,17.50
2017-06-29T01:56:32.116Z,17.50
2017-06-29T01:58:59.562Z,17.50
2017-06-29T02:01:26.987Z,17.50
2017-06-29T02:03:54.415Z,17.50
2017-06-29T02:06:21.843Z,17.60
2017-06-29T02:08:49.283Z,17.60
2017-06-29T02:11:16.710Z,17.60
2017-06-29T02:13:44.149Z,17.70
2017-06-29T02:16:12.356Z,17.60
2017-06-29T02:18:39.792Z,17.60
2017-06-29T02:21:07.296Z,17.60
2017-06-29T02:23:34.725Z,17.50
2017-06-29T02:26:02.167Z,17.40
2017-06-29T02:28:29.605Z,17.30
2017-06-29T02:30:57.025Z,17.30
2017-06-29T02:33:24.499Z,17.20
2017-06-29T02:35:51.935Z,17.20
2017-06-29T02:38:19.371Z,17.20
2017-06-29T02:40:46.802Z,17.20
2017-06-29T02:43:14.239Z,17.20
2017-06-29T02:45:41.673Z,17.30
2017-06-29T02:48:09.092Z,17.20
2017-06-29T02:50:36.536Z,17.20
2017-06-29T02:53:03.965Z,17.10
2017-06-29T02:55:31.397Z,17.10
2017-06-29T02:57:59.592Z,17.00
2017-06-29T03:00:27.027Z,17.10
2017-06-29T03:02:54.499Z,17.10
2017-06-29T03:05:21.923Z,17.00
2017-06-29T03:07:49.355Z,17.00
2017-06-29T03:10:16.787Z,17.00
2017-06-29T03:12:44.991Z,17.00
2017-06-29T03:15:12.411Z,17.00
2017-06-29T03:17:39.852Z,17.00
2017-06-29T03:20:07.271Z,17.00
2017-06-29T03:22:34.702Z,17.00
2017-06-29T03:25:02.135Z,16.80
2017-06-29T03:27:29.571Z,16.80
2017-06-29T03:29:57.028Z,16.80
2017-06-29T03:32:24.444Z,16.80
2017-06-29T03:34:51.887Z,16.70
2017-06-29T03:37:19.315Z,16.70
2017-06-29T03:39:47.511Z,16.70
2017-06-29T03:42:14.948Z,16.70
2017-06-29T03:44:42.380Z,16.70
2017-06-29T03:47:09.819Z,16.60
2017-06-29T03:49:37.248Z,16.60
2017-06-29T03:52:04.696Z,16.60
2017-06-29T03:54:32.127Z,16.60
2017-06-29T03:57:00.319Z,16.60
2017-06-29T03:59:27.757Z,16.60
2017-06-29T04:01:55.184Z,16.50
2017-06-29T04:04:22.617Z,16.50
2017-06-29T04:06:50.821Z,16.50
2017-06-29T04:09:18.275Z,16.40
2017-06-29T04:11:45.764Z,16.50
2017-06-29T04:14:13.959Z,16.40
2017-06-29T04:16:41.396Z,16.40
2017-06-29T04:19:08.820Z,16.50
2017-06-29T04:21:36.264Z,16.50
2017-06-29T04:24:03.687Z,16.50
2017-06-29T04:26:31.144Z,16.50
2017-06-29T04:28:58.596Z,16.60
2017-06-29T04:31:26.055Z,16.60
2017-06-29T04:33:54.280Z,16.60
2017-06-29T04:36:21.936Z,16.60
2017-06-29T04:38:49.383Z,16.70
2017-06-29T04:41:16.811Z,16.70
2017-06-29T04:43:44.263Z,16.70
2017-06-29T04:46:11.743Z,16.70
2017-06-29T04:48:39.944Z,16.70
2017-06-29T04:51:07.387Z,16.70
2017-06-29T04:53:34.808Z,16.80
2017-06-29T04:56:02.270Z,16.80
2017-06-29T04:58:29.691Z,16.80
2017-06-29T05:00:57.132Z,16.80
2017-06-29T05:03:24.555Z,16.80
2017-06-29T05:05:52.837Z,16.90
2017-06-29T05:08:20.267Z,16.80
2017-06-29T05:10:48.467Z,16.90
2017-06-29T05:13:15.912Z,16.90
2017-06-29T05:15:43.353Z,17.00
2017-06-29T05:18:10.787Z,16.90
2017-06-29T05:20:38.264Z,17.00
2017-06-29T05:23:05.696Z,17.00
2017-06-29T05:25:33.115Z,17.10
2017-06-29T05:28:00.574Z,17.10
2017-06-29T05:30:28.003Z,17.10
2017-06-29T05:32:55.498Z,17.10
2017-06-29T05:35:22.932Z,17.10
2017-06-29T05:37:50.365Z,17.10
2017-06-29T05:40:18.008Z,17.10
2017-06-29T05:42:45.431Z,17.10
2017-06-29T05:45:12.893Z,17.10
2017-06-29T05:47:40.314Z,17.20
2017-06-29T05:50:07.743Z,17.10
2017-06-29T05:52:35.188Z,17.20
2017-06-29T05:55:02.623Z,17.10
2017-06-29T05:57:30.101Z,17.10
2017-06-29T05:59:57.510Z,17.20
2017-06-29T06:02:24.951Z,17.20
2017-06-29T06:04:52.389Z,17.20
2017-06-29T06:07:20.584Z,17.20
2017-06-29T06:09:48.015Z,17.10
2017-06-29T06:12:15.439Z,17.10
2017-06-29T06:14:42.904Z,17.00
2017-06-29T06:17:10.351Z,17.00
2017-06-29T06:19:37.791Z,17.00
2017-06-29T06:22:05.934Z,16.90
2017-06-29T06:24:34.123Z,17.00
2017-06-29T06:27:01.556Z,16.90
2017-06-29T06:29:28.986Z,17.00
2017-06-29T06:31:57.211Z,17.10
2017-06-29T06:34:24.648Z,17.00
2017-06-29T06:36:52.084Z,17.00
2017-06-29T06:39:19.519Z,16.90
2017-06-29T06:41:46.997Z,16.90
2017-06-29T06:44:14.417Z,16.90
2017-06-29T06:46:41.839Z,16.80
2017-06-29T06:49:09.292Z,16.80
2017-06-29T06:51:36.734Z,16.90
2017-06-29T06:54:04.192Z,16.90
2017-06-29T06:56:31.616Z,16.90
2017-06-29T06:58:59.840Z,16.90
2017-06-29T07:01:27.284Z,17.00
2017-06-29T07:03:54.715Z,17.00
2017-06-29T07:06:22.171Z,17.00
2017-06-29T07:08:49.636Z,17.10
2017-06-29T07:11:17.071Z,17.20
2017-06-29T07:13:44.533Z,17.30
2017-06-29T07:16:11.956Z,17.30
2017-06-29T07:18:39.416Z,17.40
2017-06-29T07:21:07.612Z,17.40
2017-06-29T07:23:35.051Z,17.40
2017-06-29T07:26:02.483Z,17.50
2017-06-29T07:28:29.929Z,17.50
2017-06-29T07:30:57.363Z,17.60
2017-06-29T07:33:24.829Z,17.70
2017-06-29T07:35:52.261Z,17.80
2017-06-29T07:38:20.371Z,17.70
2017-06-29T07:40:47.799Z,17.80
2017-06-29T07:43:15.255Z,17.90
2017-06-29T07:45:42.684Z,17.90
2017-06-29T07:48:10.112Z,17.90
2017-06-29T07:50:37.567Z,17.90
2017-06-29T07:53:04.995Z,17.90
2017-06-29T07:55:32.427Z,17.90
2017-06-29T07:57:59.860Z,18.00
2017-06-29T08:00:27.281Z,18.10
2017-06-29T08:02:54.734Z,18.10
2017-06-29T08:05:22.183Z,18.10
2017-06-29T08:07:49.607Z,18.10
2017-06-29T08:10:17.036Z,18.20
2017-06-29T08:12:45.228Z,18.20
2017-06-29T08:15:12.690Z,18.20
2017-06-29T08:17:40.099Z,18.20
2017-06-29T08:20:07.536Z,18.20
2017-06-29T08:22:34.977Z,18.20
2017-06-29T08:25:03.228Z,18.30
2017-06-29T08:27:31.420Z,18.40
2017-06-29T08:29:58.912Z,18.40
2017-06-29T08:32:26.347Z,18.50
2017-06-29T08:34:53.796Z,18.60
2017-06-29T08:37:21.466Z,18.70
2017-06-29T08:39:48.879Z,18.80
2017-06-29T08:42:16.321Z,19.00
2017-06-29T08:44:43.746Z,18.90
2017-06-29T08:47:11.168Z,18.90
2017-06-29T08:49:38.597Z,19.00
2017-06-29T08:52:06.027Z,18.90
2017-06-29T08:54:34.231Z,18.90
2017-06-29T08:57:01.659Z,18.90
2017-06-29T08:59:29.112Z,19.10
2017-06-29T09:01:56.557Z,19.30
2017-06-29T09:04:23.979Z,19.30
2017-06-29T09:06:51.470Z,19.40
2017-06-29T09:09:18.889Z,19.60
2017-06-29T09:11:46.329Z,19.70
2017-06-29T09:14:13.758Z,19.70
2017-06-29T09:16:41.191Z,19.80
2017-06-29T09:19:08.641Z,19.90
2017-06-29T09:21:36.057Z,20.20
2017-06-29T09:24:03.495Z,20.40
2017-06-29T09:26:30.919Z,20.90
2017-06-29T09:28:58.352Z,21.70
2017-06-29T09:31:25.796Z,22.50
2017-06-29T09:33:53.253Z,23.30
2017-06-29T09:36:20.692Z,24.00
2017-06-29T09:38:48.251Z,24.80
2017-06-29T09:41:15.680Z,25.40
2017-06-29T09:43:43.118Z,26.00
2017-06-29T09:46:10.544Z,25.90
2017-06-29T09:48:37.972Z,25.60
2017-06-29T09:51:05.403Z,25.90
2017-06-29T09:53:33.601Z,26.00
2017-06-29T09:56:01.043Z,26.00
2017-06-29T09:58:28.492Z,25.20
2017-06-29T10:00:55.919Z,24.80
2017-06-29T10:03:23.356Z,24.60
2017-06-29T10:05:50.792Z,24.40
2017-06-29T10:08:18.227Z,24.60
2017-06-29T10:10:46.432Z,24.50
2017-06-29T10:13:13.861Z,24.40
2017-06-29T10:15:41.291Z,24.60
2017-06-29T10:18:08.719Z,24.90
2017-06-29T10:20:36.158Z,25.10
2017-06-29T10:23:04.367Z,25.00
2017-06-29T10:25:31.817Z,25.00
2017-06-29T10:27:59.243Z,24.50
2017-06-29T10:30:26.667Z,24.10
2017-06-29T10:32:54.098Z,23.90
2017-06-29T10:35:22.304Z,24.30
2017-06-29T10:37:49.735Z,24.30
2017-06-29T10:40:17.163Z,24.40
2017-06-29T10:42:44.593Z,25.00
2017-06-29T10:45:12.028Z,25.20
2017-06-29T10:47:40.232Z,25.70
2017-06-29T10:50:07.666Z,25.70
2017-06-29T10:52:35.098Z,25.90
2017-06-29T10:55:02.523Z,25.80
2017-06-29T10:57:30.721Z,25.40
2017-06-29T10:59:58.164Z,25.40
2017-06-29T11:02:25.589Z,25.20
2017-06-29T11:04:53.011Z,24.80
2017-06-29T11:07:20.463Z,24.70
2017-06-29T11:09:47.975Z,24.80
2017-06-29T11:12:16.183Z,24.60
2017-06-29T11:14:43.616Z,24.70
2017-06-29T11:17:11.051Z,24.70
2017-06-29T11:19:38.542Z,24.70
2017-06-29T11:22:05.975Z,24.60
2017-06-29T11:24:33.411Z,24.30
2017-06-29T11:27:00.843Z,24.00
2017-06-29T11:29:28.272Z,24.00
2017-06-29T11:31:55.696Z,24.00
2017-06-29T11:34:23.127Z,23.90
2017-06-29T11:36:51.327Z,23.90
2017-06-29T11:39:18.780Z,23.90
2017-06-29T11:41:46.317Z,23.90
2017-06-29T11:44:13.748Z,24.10
2017-06-29T11:46:41.185Z,24.00
2017-06-29T11:49:08.608Z,24.00
2017-06-29T11:51:36.812Z,24.20
2017-06-29T11:54:04.246Z,24.10
2017-06-29T11:56:31.763Z,24.20
2017-06-29T11:58:59.200Z,24.10
2017-06-29T12:01:26.636Z,24.00
2017-06-29T12:03:54.843Z,24.30
2017-06-29T12:06:22.272Z,24.20
2017-06-29T12:08:49.739Z,24.30
2017-06-29T12:11:17.185Z,24.30
2017-06-29T12:13:44.616Z,24.20
2017-06-29T12:16:12.048Z,24.10
2017-06-29T12:18:39.492Z,23.90
2017-06-29T12:21:06.922Z,23.80
2017-06-29T12:23:34.353Z,23.80
2017-06-29T12:26:01.800Z,23.90
2017-06-29T12:28:29.238Z,23.80
2017-06-29T12:30:56.700Z,23.70
2017-06-29T12:33:24.128Z,23.60
2017-06-29T12:35:51.559Z,23.60
2017-06-29T12:38:19.760Z,23.60
2017-06-29T12:40:47.200Z,23.60
2017-06-29T12:43:14.640Z,23.50
2017-06-29T12:45:42.081Z,23.50
2017-06-29T12:48:09.612Z,23.50
2017-06-29T12:50:37.052Z,23.40
2017-06-29T12:53:04.492Z,23.50
2017-06-29T12:55:31.948Z,23.50
2017-06-29T12:57:59.418Z,23.60
2017-06-29T13:00:26.845Z,23.80
2017-06-29T13:02:54.280Z,23.90
2017-06-29T13:05:21.727Z,24.00
2017-06-29T13:07:50.080Z,24.00
2017-06-29T13:10:17.512Z,24.10
2017-06-29T13:12:44.944Z,24.20
2017-06-29T13:15:12.400Z,24.30
2017-06-29T13:17:39.837Z,24.30
2017-06-29T13:20:07.281Z,24.20
2017-06-29T13:22:34.727Z,24.30
2017-06-29T13:25:02.165Z,24.30
2017-06-29T13:27:29.602Z,24.30
2017-06-29T13:29:57.029Z,24.30
2017-06-29T13:32:24.480Z,24.40
2017-06-29T13:34:51.911Z,24.40
2017-06-29T13:37:19.348Z,24.50
2017-06-29T13:39:46.795Z,24.60
2017-06-29T13:42:14.246Z,24.60
2017-06-29T13:44:41.683Z,24.50
2017-06-29T13:47:09.113Z,24.30
2017-06-29T13:49:36.567Z,24.10
2017-06-29T13:52:03.999Z,23.90
2017-06-29T13:54:31.438Z,23.70
2017-06-29T13:56:58.875Z,23.70
2017-06-29T13:59:26.304Z,23.80
2017-06-29T14:01:53.749Z,23.80
2017-06-29T14:04:21.176Z,24.00
2017-06-29T14:06:48.628Z,23.90
2017-06-29T14:09:16.055Z,23.90
2017-06-29T14:11:43.484Z,24.10
2017-06-29T14:14:11.799Z,24.40
2017-06-29T14:16:39.217Z,24.40
2017-06-29T14:19:06.697Z,24.40
2017-06-29T14:21:34.168Z,24.40
2017-06-29T14:24:01.601Z,24.20
2017-06-29T14:26:29.040Z,24.20
2017-06-29T14:28:56.487Z,24.20
2017-06-29T14:31:23.920Z,24.20
2017-06-29T14:33:51.377Z,24.40
2017-06-29T14:36:18.811Z,24.50
2017-06-29T14:38:46.324Z,24.50
2017-06-29T14:41:13.756Z,24.50
2017-06-29T14:43:41.185Z,24.50
2017-06-29T14:46:08.622Z,24.60
2017-06-29T14:48:36.050Z,24.70
2017-06-29T14:51:04.252Z,24.70
2017-06-29T14:53:31.708Z,24.60
2017-06-29T14:55:59.124Z,24.50
2017-06-29T14:58:26.567Z,24.50
2017-06-29T15:00:53.997Z,24.60
2017-06-29T15:03:21.440Z,24.60
2017-06-29T15:05:48.873Z,24.60
2017-06-29T15:08:16.309Z,24.60
2017-06-29T15:10:44.507Z,24.60
2017-06-29T15:13:11.935Z,24.60
2017-06-29T15:15:39.375Z,24.60
2017-06-29T15:18:06.808Z,24.70
2017-06-29T15:20:34.238Z,24.80
2017-06-29T15:23:01.680Z,24.80
2017-06-29T15:25:29.102Z,24.80
2017-06-29T15:27:56.549Z,24.70
2017-06-29T15:30:23.994Z,24.60
2017-06-29T15:32:51.422Z,24.60
2017-06-29T15:35:18.860Z,24.50
2017-06-29T15:37:47.063Z,24.50
2017-06-29T15:40:14.511Z,24.50
2017-06-29T15:42:41.967Z,24.40
2017-06-29T15:45:09.408Z,24.50
2017-06-29T15:47:36.852Z,24.40
2017-06-29T15:50:04.287Z,24.40
2017-06-29T15:52:31.736Z,24.30
2017-06-29T15:54:59.165Z,24.30
2017-06-29T15:57:26.629Z,24.20
2017-06-29T15:59:54.291Z,24.20
2017-06-29T16:02:21.720Z,24.30
2017-06-29T16:04:49.185Z,24.20
2017-06-29T16:07:17.412Z,24.10
2017-06-29T16:09:44.852Z,24.10
2017-06-29T16:12:12.289Z,24.10
2017-06-29T16:14:39.712Z,24.00
2017-06-29T16:17:07.161Z,24.00
2017-06-29T16:19:34.639Z,23.90
2017-06-29T16:22:02.061Z,23.90
2017-06-29T16:24:29.504Z,23.70
2017-06-29T16:26:56.935Z,23.60
2017-06-29T16:29:24.410Z,23.40
2017-06-29T16:31:51.840Z,23.30
2017-06-29T16:34:19.384Z,23.30
2017-06-29T16:36:46.825Z,23.20
2017-06-29T16:39:14.274Z,23.10
2017-06-29T16:41:41.716Z,23.00
2017-06-29T16:44:09.146Z,23.00
2017-06-29T16:46:36.580Z,23.00
2017-06-29T16:49:04.016Z,22.90
2017-06-29T16:51:31.470Z,22.80
2017-06-29T16:53:58.972Z,22.70
2017-06-29T16:56:27.168Z,22.40
2017-06-29T16:58:54.604Z,22.40
2017-06-29T17:01:22.048Z,22.30
2017-06-29T17:03:49.480Z,22.20
2017-06-29T17:06:16.946Z,22.20
2017-06-29T17:08:44.387Z,22.00
2017-06-29T17:11:11.816Z,21.90
2017-06-29T17:13:39.248Z,21.60
2017-06-29T17:16:06.684Z,21.40
2017-06-29T17:18:34.125Z,21.20
2017-06-29T17:21:01.563Z,21.10
2017-06-29T17:23:29.041Z,21.00
2017-06-29T17:25:56.474Z,21.10
2017-06-29T17:28:24.002Z,21.10
2017-06-29T17:30:51.435Z,21.10
2017-06-29T17:33:18.871Z,21.10
2017-06-29T17:35:47.097Z,21.10
2017-06-29T17:38:14.530Z,21.10
2017-06-29T17:40:41.948Z,21.00
2017-06-29T17:43:09.393Z,21.00
2017-06-29T17:45:36.840Z,20.90
2017-06-29T17:48:04.281Z,20.70
2017-06-29T17:50:31.722Z,20.70
2017-06-29T17:52:59.170Z,20.70
2017-06-29T17:55:26.602Z,20.70
2017-06-29T17:57:54.047Z,20.70
2017-06-29T18:00:21.517Z,20.70
2017-06-29T18:02:49.003Z,20.60
2017-06-29T18:05:16.857Z,20.60
2017-06-29T18:07:44.304Z,20.50
2017-06-29T18:10:11.747Z,20.40
2017-06-29T18:12:39.172Z,20.30
2017-06-29T18:15:07.379Z,20.10
2017-06-29T18:17:34.823Z,20.10
2017-06-29T18:20:02.251Z,20.20
2017-06-29T18:22:29.694Z,20.10
2017-06-29T18:24:57.117Z,20.20
2017-06-29T18:27:24.548Z,20.20
2017-06-29T18:29:51.991Z,19.90
2017-06-29T18:32:19.456Z,19.90
2017-06-29T18:34:46.872Z,19.80
2017-06-29T18:37:14.313Z,19.70
2017-06-29T18:39:41.799Z,19.70
2017-06-29T18:42:09.237Z,19.60
2017-06-29T18:44:36.672Z,19.50
2017-06-29T18:47:04.128Z,19.40
2017-06-29T18:49:31.560Z,19.40
2017-06-29T18:51:58.987Z,19.40
2017-06-29T18:54:26.423Z,19.40
2017-06-29T18:56:53.885Z,19.40
2017-06-29T18:59:21.313Z,19.40
2017-06-29T19:01:48.737Z,19.40
2017-06-29T19:04:16.188Z,19.30
2017-06-29T19:06:43.623Z,19.10
2017-06-29T19:09:11.048Z,19.00
2017-06-29T19:11:38.485Z,19.00
2017-06-29T19:14:06.689Z,18.90
2017-06-29T19:16:34.137Z,18.90
2017-06-29T19:19:01.559Z,18.80
2017-06-29T19:21:29.772Z,18.90
2017-06-29T19:23:58.120Z,18.80
2017-06-29T19:26:25.576Z,18.90
2017-06-29T19:28:53.017Z,18.90
2017-06-29T19:31:20.451Z,18.90
2017-06-29T19:33:47.888Z,18.90
2017-06-29T19:36:15.328Z,18.80
2017-06-29T19:38:42.768Z,18.80
2017-06-29T19:41:10.284Z,18.70
2017-06-29T19:43:37.735Z,18.80
2017-06-29T19:46:05.169Z,18.80
2017-06-29T19:48:32.600Z,18.80
2017-06-29T19:51:00.031Z,18.80
2017-06-29T19:53:27.489Z,18.80
2017-06-29T19:55:55.688Z,18.80
2017-06-29T19:58:23.148Z,18.80
2017-06-29T20:00:50.586Z,18.90
2017-06-29T20:03:18.068Z,18.80
2017-06-29T20:05:45.496Z,18.90
2017-06-29T20:08:12.965Z,18.90
2017-06-29T20:10:40.373Z,18.90
2017-06-29T20:13:07.819Z,18.80
2017-06-29T20:15:35.248Z,18.80
2017-06-29T20:18:02.700Z,18.80
2017-06-29T20:20:30.136Z,18.80
2017-06-29T20:22:57.572Z,18.90
2017-06-29T20:25:25.014Z,18.90
2017-06-29T20:27:52.444Z,18.90
2017-06-29T20:30:19.892Z,18.90
2017-06-29T20:32:48.080Z,18.80
2017-06-29T20:35:15.519Z,18.80
2017-06-29T20:37:42.952Z,18.80
2017-06-29T20:40:10.388Z,18.80
2017-06-29T20:42:37.825Z,18.80
2017-06-29T20:45:05.256Z,18.70
2017-06-29T20:47:32.694Z,18.70
2017-06-29T20:50:00.888Z,18.80
2017-06-29T20:52:28.345Z,18.80
2017-06-29T20:54:55.781Z,18.80
2017-06-29T20:57:23.224Z,18.80
2017-06-29T20:59:50.666Z,18.80
2017-06-29T21:02:18.097Z,18.80
2017-06-29T21:04:45.530Z,18.70
2017-06-29T21:07:13.764Z,18.70
2017-06-29T21:09:41.974Z,18.60
2017-06-29T21:12:09.400Z,18.60
2017-06-29T21:14:36.852Z,18.70
2017-06-29T21:17:04.303Z,18.60
2017-06-29T21:19:31.746Z,18.50
2017-06-29T21:21:59.181Z,18.50
2017-06-29T21:24:26.624Z,18.50
2017-06-29T21:26:54.068Z,18.60
2017-06-29T21:29:21.495Z,18.50
2017-06-29T21:31:48.938Z,18.50
2017-06-29T21:34:16.369Z,18.40
2017-06-29T21:36:44.592Z,18.30
2017-06-29T21:39:12.032Z,18.30
2017-06-29T21:41:39.472Z,18.20
2017-06-29T21:44:06.911Z,18.20
2017-06-29T21:46:34.351Z,18.20
2017-06-29T21:49:01.792Z,18.10
2017-06-29T21:51:30.485Z,18.10
2017-06-29T21:53:57.928Z,18.10
2017-06-29T21:56:25.376Z,18.10
2017-06-29T21:58:52.808Z,18.10
2017-06-29T22:01:20.310Z,18.00
2017-06-29T22:03:47.727Z,17.90
2017-06-29T22:06:15.935Z,17.90
2017-06-29T22:08:43.375Z,17.90
2017-06-29T22:11:10.819Z,18.00
2017-06-29T22:13:38.260Z,18.00
2017-06-29T22:16:05.692Z,18.00
2017-06-29T22:18:33.147Z,18.00
2017-06-29T22:21:00.569Z,17.90
2017-06-29T22:23:28.029Z,17.90
2017-06-29T22:25:55.456Z,17.90
2017-06-29T22:28:22.891Z,17.80
2017-06-29T22:30:50.344Z,17.80
2017-06-29T22:33:17.828Z,17.80
2017-06-29T22:35:45.269Z,17.70
2017-06-29T22:38:12.714Z,17.60
2017-06-29T22:40:40.145Z,17.60
2017-06-29T22:43:07.587Z,17.60
2017-06-29T22:45:35.020Z,17.60
2017-06-29T22:48:02.452Z,17.50
2017-06-29T22:50:29.888Z,17.50
2017-06-29T22:52:57.340Z,17.50
2017-06-29T22:55:24.768Z,17.60
2017-06-29T22:57:52.200Z,17.60
2017-06-29T23:00:19.636Z,17.60
2017-06-29T23:02:47.076Z,17.50
2017-06-29T23:05:14.510Z,17.50
2017-06-29T23:07:42.712Z,17.50
2017-06-29T23:10:10.171Z,17.50
2017-06-29T23:12:37.623Z,17.50
2017-06-29T23:15:05.059Z,17.60
2017-06-29T23:17:32.487Z,17.60
2017-06-29T23:19:59.966Z,17.60
2017-06-29T23:22:27.391Z,17.60
2017-06-29T23:24:54.833Z,17.50
2017-06-29T23:27:22.255Z,17.50
2017-06-29T23:29:49.683Z,17.50
2017-06-29T23:32:17.115Z,17.50
2017-06-29T23:34:44.539Z,17.50
2017-06-29T23:37:11.989Z,17.60
2017-06-29T23:39:39.420Z,17.60
2017-06-29T23:42:07.616Z,17.50
2017-06-29T23:44:35.060Z,17.50
2017-06-29T23:47:02.492Z,17.40
2017-06-29T23:49:29.949Z,17.30
2017-06-29T23:51:57.391Z,17.30
2017-06-29T23:54:24.814Z,17.30
2017-06-29T23:56:52.253Z,17.30
2017-06-29T23:59:19.696Z,17.20
